Terminal Aerodrome Forecast
Issued by NWS Charleston, WV

Current Version | Previous Version | Graphics & Text | Print | Product List | Glossary On
Versions: 1 2 3 4 5 6 7 8 9 10 11 12 13 14 15 16 17 18 19 20 21 22 23
000
FTUS41 KRLX 211914 AAA
TAFEKN
TAF AMD
KEKN 211914Z 2119/2218 33006KT 2SM SHRA OVC015
     FM211930 28006KT P6SM SHRA BKN025
     FM220600 29005KT 2SM BR BKN025
     FM220700 29005KT 1SM BR BKN005
     FM221300 29004KT 3SM BR BKN008
     FM221500 30005KT P6SM SCT035=

USA.gov is the U.S. government's official web portal to all federal, state and local government web resources and services.